sensor_id;sensor_type;location;lat;lon;timestamp;P1;durP1;ratioP1;P2;durP2;ratioP2
10403;SDS011;5248;47.374;8.486;2023-04-06T00:00:47;6.63;;;6.07;;
10403;SDS011;5248;47.374;8.486;2023-04-06T00:03:14;6.57;;;5.53;;
10403;SDS011;5248;47.374;8.486;2023-04-06T00:05:40;6.63;;;6.03;;
10403;SDS011;5248;47.374;8.486;2023-04-06T00:08:09;6.47;;;5.70;;
10403;SDS011;5248;47.374;8.486;2023-04-06T00:10:37;8.03;;;5.67;;
10403;SDS011;5248;47.374;8.486;2023-04-06T00:13:06;6.33;;;5.73;;
10403;SDS011;5248;47.374;8.486;2023-04-06T00:15:35;6.77;;;6.10;;
10403;SDS011;5248;47.374;8.486;2023-04-06T00:18:02;6.93;;;6.00;;
10403;SDS011;5248;47.374;8.486;2023-04-06T00:20:31;6.00;;;5.50;;
10403;SDS011;5248;47.374;8.486;2023-04-06T00:22:58;5.90;;;5.37;;
10403;SDS011;5248;47.374;8.486;2023-04-06T00:28:41;7.03;;;6.07;;
10403;SDS011;5248;47.374;8.486;2023-04-06T00:31:08;6.43;;;5.63;;
10403;SDS011;5248;47.374;8.486;2023-04-06T00:33:35;6.60;;;6.00;;
10403;SDS011;5248;47.374;8.486;2023-04-06T00:36:01;7.00;;;6.30;;
10403;SDS011;5248;47.374;8.486;2023-04-06T00:38:28;6.03;;;5.50;;
10403;SDS011;5248;47.374;8.486;2023-04-06T00:40:55;6.63;;;5.90;;
10403;SDS011;5248;47.374;8.486;2023-04-06T00:43:21;6.30;;;5.70;;
10403;SDS011;5248;47.374;8.486;2023-04-06T00:45:53;6.13;;;5.63;;
10403;SDS011;5248;47.374;8.486;2023-04-06T00:48:21;7.03;;;6.33;;
10403;SDS011;5248;47.374;8.486;2023-04-06T00:50:48;7.53;;;6.13;;
10403;SDS011;5248;47.374;8.486;2023-04-06T00:53:14;6.80;;;6.20;;
10403;SDS011;5248;47.374;8.486;2023-04-06T00:55:41;6.63;;;6.03;;
10403;SDS011;5248;47.374;8.486;2023-04-06T00:58:07;6.37;;;5.80;;
10403;SDS011;5248;47.374;8.486;2023-04-06T01:00:34;6.73;;;6.10;;
10403;SDS011;5248;47.374;8.486;2023-04-06T01:03:02;7.20;;;6.43;;
10403;SDS011;5248;47.374;8.486;2023-04-06T01:05:32;6.50;;;5.57;;
10403;SDS011;5248;47.374;8.486;2023-04-06T01:07:59;6.33;;;5.83;;
10403;SDS011;5248;47.374;8.486;2023-04-06T01:10:28;6.93;;;6.20;;
10403;SDS011;5248;47.374;8.486;2023-04-06T01:12:55;9.63;;;6.10;;
10403;SDS011;5248;47.374;8.486;2023-04-06T01:15:22;6.43;;;5.83;;
10403;SDS011;5248;47.374;8.486;2023-04-06T01:17:51;7.67;;;5.83;;
10403;SDS011;5248;47.374;8.486;2023-04-06T01:20:19;6.63;;;5.97;;
10403;SDS011;5248;47.374;8.486;2023-04-06T01:22:49;7.93;;;6.40;;
10403;SDS011;5248;47.374;8.486;2023-04-06T01:25:16;6.90;;;6.20;;
10403;SDS011;5248;47.374;8.486;2023-04-06T01:27:42;6.93;;;6.00;;
10403;SDS011;5248;47.374;8.486;2023-04-06T01:30:11;8.70;;;6.60;;
10403;SDS011;5248;47.374;8.486;2023-04-06T01:32:39;7.07;;;6.37;;
10403;SDS011;5248;47.374;8.486;2023-04-06T01:35:07;7.27;;;6.17;;
10403;SDS011;5248;47.374;8.486;2023-04-06T01:37:36;6.77;;;6.07;;
10403;SDS011;5248;47.374;8.486;2023-04-06T01:40:05;6.43;;;5.83;;
10403;SDS011;5248;47.374;8.486;2023-04-06T01:42:33;7.30;;;6.57;;
10403;SDS011;5248;47.374;8.486;2023-04-06T01:45:02;6.93;;;6.20;;
10403;SDS011;5248;47.374;8.486;2023-04-06T01:47:29;7.87;;;6.47;;
10403;SDS011;5248;47.374;8.486;2023-04-06T01:49:56;6.70;;;6.10;;
10403;SDS011;5248;47.374;8.486;2023-04-06T01:52:22;7.37;;;6.57;;
10403;SDS011;5248;47.374;8.486;2023-04-06T01:54:49;7.10;;;6.40;;
10403;SDS011;5248;47.374;8.486;2023-04-06T01:57:18;7.30;;;6.60;;
10403;SDS011;5248;47.374;8.486;2023-04-06T01:59:45;6.97;;;6.37;;
10403;SDS011;5248;47.374;8.486;2023-04-06T02:02:11;7.07;;;6.47;;
10403;SDS011;5248;47.374;8.486;2023-04-06T02:04:38;7.10;;;6.40;;
10403;SDS011;5248;47.374;8.486;2023-04-06T02:07:08;7.10;;;6.50;;
10403;SDS011;5248;47.374;8.486;2023-04-06T02:09:35;7.20;;;6.50;;
10403;SDS011;5248;47.374;8.486;2023-04-06T02:12:03;8.23;;;6.67;;
10403;SDS011;5248;47.374;8.486;2023-04-06T02:14:31;7.10;;;6.40;;
10403;SDS011;5248;47.374;8.486;2023-04-06T02:16:58;7.00;;;6.40;;
10403;SDS011;5248;47.374;8.486;2023-04-06T02:19:25;6.53;;;5.97;;
10403;SDS011;5248;47.374;8.486;2023-04-06T02:21:51;7.83;;;7.03;;
10403;SDS011;5248;47.374;8.486;2023-04-06T02:24:18;8.07;;;7.27;;
10403;SDS011;5248;47.374;8.486;2023-04-06T02:26:45;7.03;;;6.43;;
10403;SDS011;5248;47.374;8.486;2023-04-06T02:29:11;10.67;;;6.73;;
10403;SDS011;5248;47.374;8.486;2023-04-06T02:31:39;7.30;;;6.60;;
10403;SDS011;5248;47.374;8.486;2023-04-06T02:34:06;8.03;;;7.23;;
10403;SDS011;5248;47.374;8.486;2023-04-06T02:36:36;7.47;;;6.50;;
10403;SDS011;5248;47.374;8.486;2023-04-06T02:39:03;7.43;;;6.73;;
10403;SDS011;5248;47.374;8.486;2023-04-06T02:41:29;8.17;;;6.77;;
10403;SDS011;5248;47.374;8.486;2023-04-06T02:43:56;7.47;;;6.73;;
10403;SDS011;5248;47.374;8.486;2023-04-06T02:46:22;6.93;;;6.23;;
10403;SDS011;5248;47.374;8.486;2023-04-06T02:48:50;7.63;;;6.83;;
10403;SDS011;5248;47.374;8.486;2023-04-06T02:51:17;8.33;;;6.90;;
10403;SDS011;5248;47.374;8.486;2023-04-06T02:53:43;7.53;;;6.83;;
10403;SDS011;5248;47.374;8.486;2023-04-06T02:56:10;7.53;;;6.83;;
10403;SDS011;5248;47.374;8.486;2023-04-06T02:58:37;7.30;;;6.43;;
10403;SDS011;5248;47.374;8.486;2023-04-06T03:01:04;7.73;;;6.47;;
10403;SDS011;5248;47.374;8.486;2023-04-06T03:03:31;6.93;;;6.27;;
10403;SDS011;5248;47.374;8.486;2023-04-06T03:05:58;6.73;;;6.13;;
10403;SDS011;5248;47.374;8.486;2023-04-06T03:08:25;6.97;;;6.30;;
10403;SDS011;5248;47.374;8.486;2023-04-06T03:10:52;7.10;;;6.30;;
10403;SDS011;5248;47.374;8.486;2023-04-06T03:13:18;6.90;;;6.20;;
10403;SDS011;5248;47.374;8.486;2023-04-06T03:15:45;7.60;;;6.47;;
10403;SDS011;5248;47.374;8.486;2023-04-06T03:18:12;6.43;;;5.90;;
10403;SDS011;5248;47.374;8.486;2023-04-06T03:20:38;6.47;;;5.77;;
10403;SDS011;5248;47.374;8.486;2023-04-06T03:23:10;6.73;;;6.13;;
10403;SDS011;5248;47.374;8.486;2023-04-06T03:25:37;7.80;;;6.60;;
10403;SDS011;5248;47.374;8.486;2023-04-06T03:28:04;7.60;;;6.90;;
10403;SDS011;5248;47.374;8.486;2023-04-06T03:30:32;7.20;;;6.50;;
10403;SDS011;5248;47.374;8.486;2023-04-06T03:33:00;7.23;;;6.50;;
10403;SDS011;5248;47.374;8.486;2023-04-06T03:35:26;8.90;;;6.13;;
10403;SDS011;5248;47.374;8.486;2023-04-06T03:37:53;7.23;;;6.60;;
10403;SDS011;5248;47.374;8.486;2023-04-06T03:40:21;9.00;;;5.70;;
10403;SDS011;5248;47.374;8.486;2023-04-06T03:42:48;7.67;;;6.50;;
10403;SDS011;5248;47.374;8.486;2023-04-06T03:45:15;7.23;;;6.00;;
10403;SDS011;5248;47.374;8.486;2023-04-06T03:47:42;6.43;;;5.83;;
10403;SDS011;5248;47.374;8.486;2023-04-06T03:50:08;6.97;;;6.27;;
10403;SDS011;5248;47.374;8.486;2023-04-06T03:52:39;6.63;;;6.03;;
10403;SDS011;5248;47.374;8.486;2023-04-06T03:55:06;7.20;;;6.40;;
10403;SDS011;5248;47.374;8.486;2023-04-06T03:57:35;7.10;;;6.40;;
10403;SDS011;5248;47.374;8.486;2023-04-06T04:00:03;7.53;;;6.60;;
10403;SDS011;5248;47.374;8.486;2023-04-06T04:02:33;7.53;;;6.87;;
10403;SDS011;5248;47.374;8.486;2023-04-06T04:05:00;7.80;;;6.40;;
10403;SDS011;5248;47.374;8.486;2023-04-06T04:07:27;7.53;;;6.63;;
10403;SDS011;5248;47.374;8.486;2023-04-06T04:09:54;7.20;;;6.40;;
10403;SDS011;5248;47.374;8.486;2023-04-06T04:12:21;7.07;;;6.37;;
10403;SDS011;5248;47.374;8.486;2023-04-06T04:14:50;6.90;;;6.30;;
10403;SDS011;5248;47.374;8.486;2023-04-06T04:17:19;7.20;;;6.50;;
10403;SDS011;5248;47.374;8.486;2023-04-06T04:19:45;7.57;;;6.43;;
10403;SDS011;5248;47.374;8.486;2023-04-06T04:22:12;12.57;;;8.20;;
10403;SDS011;5248;47.374;8.486;2023-04-06T04:24:39;8.67;;;6.93;;
10403;SDS011;5248;47.374;8.486;2023-04-06T04:27:06;7.77;;;6.63;;
10403;SDS011;5248;47.374;8.486;2023-04-06T04:29:34;9.20;;;6.63;;
10403;SDS011;5248;47.374;8.486;2023-04-06T04:32:02;7.93;;;7.13;;
10403;SDS011;5248;47.374;8.486;2023-04-06T04:34:28;9.20;;;7.13;;
10403;SDS011;5248;47.374;8.486;2023-04-06T04:36:55;8.43;;;6.93;;
10403;SDS011;5248;47.374;8.486;2023-04-06T04:39:22;7.03;;;6.33;;
10403;SDS011;5248;47.374;8.486;2023-04-06T04:41:51;7.77;;;6.93;;
10403;SDS011;5248;47.374;8.486;2023-04-06T04:44:19;8.20;;;6.77;;
10403;SDS011;5248;47.374;8.486;2023-04-06T04:46:46;7.37;;;6.67;;
10403;SDS011;5248;47.374;8.486;2023-04-06T04:49:14;7.93;;;5.80;;
10403;SDS011;5248;47.374;8.486;2023-04-06T04:51:40;6.50;;;5.97;;
10403;SDS011;5248;47.374;8.486;2023-04-06T04:54:07;7.50;;;6.63;;
10403;SDS011;5248;47.374;8.486;2023-04-06T04:56:34;8.97;;;6.60;;
10403;SDS011;5248;47.374;8.486;2023-04-06T04:59:01;7.80;;;7.00;;
10403;SDS011;5248;47.374;8.486;2023-04-06T05:01:27;8.10;;;7.27;;
10403;SDS011;5248;47.374;8.486;2023-04-06T05:03:54;8.23;;;6.77;;
10403;SDS011;5248;47.374;8.486;2023-04-06T05:06:22;7.50;;;6.80;;
10403;SDS011;5248;47.374;8.486;2023-04-06T05:08:48;6.87;;;6.17;;
10403;SDS011;5248;47.374;8.486;2023-04-06T05:11:15;7.60;;;6.80;;
10403;SDS011;5248;47.374;8.486;2023-04-06T05:13:42;7.40;;;6.70;;
10403;SDS011;5248;47.374;8.486;2023-04-06T05:16:09;6.77;;;6.17;;
10403;SDS011;5248;47.374;8.486;2023-04-06T05:18:35;7.63;;;6.77;;
10403;SDS011;5248;47.374;8.486;2023-04-06T05:21:02;8.17;;;7.37;;
10403;SDS011;5248;47.374;8.486;2023-04-06T05:23:31;8.90;;;6.90;;
10403;SDS011;5248;47.374;8.486;2023-04-06T05:25:57;7.90;;;7.10;;
10403;SDS011;5248;47.374;8.486;2023-04-06T05:28:28;9.03;;;6.73;;
10403;SDS011;5248;47.374;8.486;2023-04-06T05:30:54;9.53;;;7.23;;
10403;SDS011;5248;47.374;8.486;2023-04-06T05:33:24;8.30;;;7.10;;
10403;SDS011;5248;47.374;8.486;2023-04-06T05:35:51;10.87;;;6.90;;
10403;SDS011;5248;47.374;8.486;2023-04-06T05:38:18;7.87;;;6.80;;
10403;SDS011;5248;47.374;8.486;2023-04-06T05:40:46;8.30;;;7.50;;
10403;SDS011;5248;47.374;8.486;2023-04-06T05:43:12;7.33;;;6.60;;
10403;SDS011;5248;47.374;8.486;2023-04-06T05:45:43;8.20;;;7.20;;
10403;SDS011;5248;47.374;8.486;2023-04-06T05:48:12;7.87;;;7.07;;
10403;SDS011;5248;47.374;8.486;2023-04-06T05:50:39;8.27;;;7.00;;
10403;SDS011;5248;47.374;8.486;2023-04-06T05:53:06;9.33;;;7.90;;
10403;SDS011;5248;47.374;8.486;2023-04-06T05:55:33;10.53;;;7.30;;
10403;SDS011;5248;47.374;8.486;2023-04-06T05:58:01;7.63;;;6.93;;
10403;SDS011;5248;47.374;8.486;2023-04-06T06:00:27;10.23;;;7.03;;
10403;SDS011;5248;47.374;8.486;2023-04-06T06:02:54;8.17;;;7.37;;
10403;SDS011;5248;47.374;8.486;2023-04-06T06:05:20;9.10;;;7.20;;
10403;SDS011;5248;47.374;8.486;2023-04-06T06:07:47;7.83;;;7.13;;
10403;SDS011;5248;47.374;8.486;2023-04-06T06:10:14;8.70;;;7.57;;
10403;SDS011;5248;47.374;8.486;2023-04-06T06:12:41;7.33;;;6.70;;
10403;SDS011;5248;47.374;8.486;2023-04-06T06:15:09;10.87;;;7.17;;
10403;SDS011;5248;47.374;8.486;2023-04-06T06:17:37;10.67;;;7.80;;
10403;SDS011;5248;47.374;8.486;2023-04-06T06:20:06;7.60;;;6.90;;
10403;SDS011;5248;47.374;8.486;2023-04-06T06:22:34;11.73;;;7.20;;
10403;SDS011;5248;47.374;8.486;2023-04-06T06:25:00;7.67;;;6.40;;
10403;SDS011;5248;47.374;8.486;2023-04-06T06:27:28;7.77;;;6.33;;
10403;SDS011;5248;47.374;8.486;2023-04-06T06:29:55;8.30;;;7.40;;
10403;SDS011;5248;47.374;8.486;2023-04-06T06:32:23;14.23;;;7.47;;
10403;SDS011;5248;47.374;8.486;2023-04-06T06:34:50;8.93;;;6.93;;
10403;SDS011;5248;47.374;8.486;2023-04-06T06:37:16;7.53;;;6.73;;
10403;SDS011;5248;47.374;8.486;2023-04-06T06:39:43;9.13;;;6.57;;
10403;SDS011;5248;47.374;8.486;2023-04-06T06:42:09;7.53;;;6.83;;
10403;SDS011;5248;47.374;8.486;2023-04-06T06:44:36;6.87;;;6.33;;
10403;SDS011;5248;47.374;8.486;2023-04-06T06:47:03;9.57;;;6.70;;
10403;SDS011;5248;47.374;8.486;2023-04-06T06:49:33;7.97;;;7.17;;
10403;SDS011;5248;47.374;8.486;2023-04-06T06:52:01;8.33;;;6.73;;
10403;SDS011;5248;47.374;8.486;2023-04-06T06:54:30;7.50;;;6.70;;
10403;SDS011;5248;47.374;8.486;2023-04-06T06:56:57;7.63;;;6.90;;
10403;SDS011;5248;47.374;8.486;2023-04-06T06:59:24;9.23;;;6.80;;
10403;SDS011;5248;47.374;8.486;2023-04-06T07:01:51;10.17;;;7.30;;
10403;SDS011;5248;47.374;8.486;2023-04-06T07:04:17;7.63;;;6.93;;
10403;SDS011;5248;47.374;8.486;2023-04-06T07:06:46;7.70;;;7.03;;
10403;SDS011;5248;47.374;8.486;2023-04-06T07:09:12;7.60;;;6.90;;
10403;SDS011;5248;47.374;8.486;2023-04-06T07:11:40;8.63;;;6.90;;
10403;SDS011;5248;47.374;8.486;2023-04-06T07:14:07;12.03;;;7.70;;
10403;SDS011;5248;47.374;8.486;2023-04-06T07:16:33;7.83;;;7.13;;
10403;SDS011;5248;47.374;8.486;2023-04-06T07:19:00;8.40;;;7.50;;
10403;SDS011;5248;47.374;8.486;2023-04-06T07:21:28;7.93;;;7.23;;
10403;SDS011;5248;47.374;8.486;2023-04-06T07:23:56;8.27;;;7.40;;
10403;SDS011;5248;47.374;8.486;2023-04-06T07:26:23;8.27;;;7.10;;
10403;SDS011;5248;47.374;8.486;2023-04-06T07:28:49;8.73;;;7.80;;
10403;SDS011;5248;47.374;8.486;2023-04-06T07:31:17;8.90;;;8.00;;
10403;SDS011;5248;47.374;8.486;2023-04-06T07:33:44;8.47;;;7.77;;
10403;SDS011;5248;47.374;8.486;2023-04-06T07:36:14;8.33;;;7.33;;
10403;SDS011;5248;47.374;8.486;2023-04-06T07:38:41;8.43;;;7.53;;
10403;SDS011;5248;47.374;8.486;2023-04-06T07:41:08;8.20;;;7.47;;
10403;SDS011;5248;47.374;8.486;2023-04-06T07:43:35;8.57;;;7.03;;
10403;SDS011;5248;47.374;8.486;2023-04-06T07:46:01;8.40;;;7.73;;
10403;SDS011;5248;47.374;8.486;2023-04-06T07:48:28;10.13;;;8.30;;
10403;SDS011;5248;47.374;8.486;2023-04-06T07:51:00;8.83;;;7.93;;
10403;SDS011;5248;47.374;8.486;2023-04-06T07:53:29;8.93;;;8.03;;
10403;SDS011;5248;47.374;8.486;2023-04-06T07:55:58;12.00;;;8.77;;
10403;SDS011;5248;47.374;8.486;2023-04-06T07:58:26;8.63;;;7.80;;
10403;SDS011;5248;47.374;8.486;2023-04-06T08:00:52;8.87;;;8.00;;
10403;SDS011;5248;47.374;8.486;2023-04-06T08:03:19;10.23;;;9.13;;
10403;SDS011;5248;47.374;8.486;2023-04-06T08:05:50;8.97;;;8.00;;
10403;SDS011;5248;47.374;8.486;2023-04-06T08:08:16;9.57;;;8.40;;
10403;SDS011;5248;47.374;8.486;2023-04-06T08:10:43;9.37;;;8.13;;
10403;SDS011;5248;47.374;8.486;2023-04-06T08:13:10;9.30;;;7.97;;
10403;SDS011;5248;47.374;8.486;2023-04-06T08:15:39;8.83;;;7.80;;
10403;SDS011;5248;47.374;8.486;2023-04-06T08:18:05;9.13;;;7.43;;
10403;SDS011;5248;47.374;8.486;2023-04-06T08:20:32;8.37;;;7.57;;
10403;SDS011;5248;47.374;8.486;2023-04-06T08:22:58;10.40;;;7.20;;
10403;SDS011;5248;47.374;8.486;2023-04-06T08:25:25;8.50;;;7.53;;
10403;SDS011;5248;47.374;8.486;2023-04-06T08:27:59;17.97;;;7.70;;
10403;SDS011;5248;47.374;8.486;2023-04-06T08:30:26;8.90;;;7.57;;
10403;SDS011;5248;47.374;8.486;2023-04-06T08:32:55;7.97;;;7.17;;
10403;SDS011;5248;47.374;8.486;2023-04-06T08:35:22;11.67;;;6.93;;
10403;SDS011;5248;47.374;8.486;2023-04-06T08:37:50;8.33;;;7.33;;
10403;SDS011;5248;47.374;8.486;2023-04-06T08:40:17;9.80;;;8.07;;
10403;SDS011;5248;47.374;8.486;2023-04-06T08:42:44;8.60;;;7.70;;
10403;SDS011;5248;47.374;8.486;2023-04-06T08:45:16;7.97;;;7.27;;
10403;SDS011;5248;47.374;8.486;2023-04-06T08:47:46;8.47;;;7.00;;
10403;SDS011;5248;47.374;8.486;2023-04-06T08:50:16;8.40;;;7.50;;
10403;SDS011;5248;47.374;8.486;2023-04-06T08:52:43;8.47;;;7.63;;
10403;SDS011;5248;47.374;8.486;2023-04-06T08:55:13;8.30;;;7.47;;
10403;SDS011;5248;47.374;8.486;2023-04-06T08:57:40;11.23;;;7.87;;
10403;SDS011;5248;47.374;8.486;2023-04-06T09:00:08;9.43;;;6.90;;
10403;SDS011;5248;47.374;8.486;2023-04-06T09:02:37;8.67;;;7.30;;
10403;SDS011;5248;47.374;8.486;2023-04-06T09:05:05;7.67;;;6.87;;
10403;SDS011;5248;47.374;8.486;2023-04-06T09:07:34;6.30;;;5.70;;
10403;SDS011;5248;47.374;8.486;2023-04-06T09:10:01;8.17;;;5.70;;
10403;SDS011;5248;47.374;8.486;2023-04-06T09:12:31;6.10;;;5.50;;
10403;SDS011;5248;47.374;8.486;2023-04-06T09:15:03;5.73;;;5.27;;
10403;SDS011;5248;47.374;8.486;2023-04-06T09:17:32;6.63;;;5.40;;
10403;SDS011;5248;47.374;8.486;2023-04-06T09:20:02;5.93;;;5.43;;
10403;SDS011;5248;47.374;8.486;2023-04-06T09:22:38;6.23;;;5.63;;
10403;SDS011;5248;47.374;8.486;2023-04-06T09:25:07;6.65;;;6.00;;
10403;SDS011;5248;47.374;8.486;2023-04-06T09:27:35;6.38;;;5.78;;
10403;SDS011;5248;47.374;8.486;2023-04-06T09:30:04;6.47;;;5.88;;
10403;SDS011;5248;47.374;8.486;2023-04-06T09:32:32;7.15;;;5.57;;
10403;SDS011;5248;47.374;8.486;2023-04-06T09:35:06;5.53;;;5.03;;
10403;SDS011;5248;47.374;8.486;2023-04-06T09:37:33;7.20;;;5.85;;
10403;SDS011;5248;47.374;8.486;2023-04-06T09:40:04;6.35;;;5.75;;
10403;SDS011;5248;47.374;8.486;2023-04-06T09:42:32;6.88;;;5.75;;
10403;SDS011;5248;47.374;8.486;2023-04-06T09:45:00;6.38;;;5.72;;
10403;SDS011;5248;47.374;8.486;2023-04-06T09:47:27;5.18;;;4.70;;
10403;SDS011;5248;47.374;8.486;2023-04-06T09:49:55;5.93;;;5.32;;
10403;SDS011;5248;47.374;8.486;2023-04-06T09:52:23;5.90;;;5.32;;
10403;SDS011;5248;47.374;8.486;2023-04-06T09:54:52;6.05;;;5.43;;
10403;SDS011;5248;47.374;8.486;2023-04-06T09:57:27;5.25;;;4.80;;
10403;SDS011;5248;47.374;8.486;2023-04-06T10:00:01;5.93;;;5.07;;
10403;SDS011;5248;47.374;8.486;2023-04-06T10:02:34;5.25;;;4.82;;
10403;SDS011;5248;47.374;8.486;2023-04-06T10:05:07;5.15;;;4.68;;
10403;SDS011;5248;47.374;8.486;2023-04-06T10:07:36;4.60;;;4.20;;
10403;SDS011;5248;47.374;8.486;2023-04-06T10:10:05;4.82;;;4.38;;
10403;SDS011;5248;47.374;8.486;2023-04-06T10:12:34;4.65;;;4.25;;
10403;SDS011;5248;47.374;8.486;2023-04-06T10:15:02;4.90;;;4.50;;
10403;SDS011;5248;47.374;8.486;2023-04-06T10:17:30;4.78;;;4.38;;
10403;SDS011;5248;47.374;8.486;2023-04-06T10:20:02;4.70;;;4.30;;
10403;SDS011;5248;47.374;8.486;2023-04-06T10:22:32;4.85;;;4.35;;
10403;SDS011;5248;47.374;8.486;2023-04-06T10:25:03;4.72;;;4.32;;
10403;SDS011;5248;47.374;8.486;2023-04-06T10:27:30;4.88;;;4.38;;
10403;SDS011;5248;47.374;8.486;2023-04-06T10:30:01;4.40;;;4.00;;
10403;SDS011;5248;47.374;8.486;2023-04-06T10:32:35;5.20;;;4.63;;
10403;SDS011;5248;47.374;8.486;2023-04-06T10:35:06;3.83;;;3.53;;
10403;SDS011;5248;47.374;8.486;2023-04-06T10:37:45;4.45;;;4.05;;
10403;SDS011;5248;47.374;8.486;2023-04-06T10:40:23;5.18;;;4.70;;
10403;SDS011;5248;47.374;8.486;2023-04-06T10:42:53;4.82;;;4.43;;
10403;SDS011;5248;47.374;8.486;2023-04-06T10:45:23;5.40;;;4.90;;
10403;SDS011;5248;47.374;8.486;2023-04-06T10:47:52;5.10;;;4.60;;
10403;SDS011;5248;47.374;8.486;2023-04-06T10:50:20;5.75;;;5.22;;
10403;SDS011;5248;47.374;8.486;2023-04-06T10:52:58;6.25;;;5.75;;
10403;SDS011;5248;47.374;8.486;2023-04-06T10:55:25;7.07;;;5.20;;
10403;SDS011;5248;47.374;8.486;2023-04-06T10:57:52;6.10;;;5.55;;
10403;SDS011;5248;47.374;8.486;2023-04-06T11:00:19;5.80;;;5.20;;
10403;SDS011;5248;47.374;8.486;2023-04-06T11:02:48;8.50;;;5.22;;
10403;SDS011;5248;47.374;8.486;2023-04-06T11:05:14;5.82;;;5.07;;
10403;SDS011;5248;47.374;8.486;2023-04-06T11:07:41;5.28;;;4.78;;
10403;SDS011;5248;47.374;8.486;2023-04-06T11:10:08;5.80;;;5.30;;
10403;SDS011;5248;47.374;8.486;2023-04-06T11:12:35;5.85;;;5.28;;
10403;SDS011;5248;47.374;8.486;2023-04-06T11:15:02;5.97;;;5.47;;
10403;SDS011;5248;47.374;8.486;2023-04-06T11:17:33;5.63;;;5.18;;
10403;SDS011;5248;47.374;8.486;2023-04-06T11:20:02;7.82;;;5.55;;
10403;SDS011;5248;47.374;8.486;2023-04-06T11:22:30;6.18;;;5.55;;
10403;SDS011;5248;47.374;8.486;2023-04-06T11:25:04;5.65;;;5.10;;
10403;SDS011;5248;47.374;8.486;2023-04-06T11:27:31;5.97;;;5.30;;
10403;SDS011;5248;47.374;8.486;2023-04-06T11:29:58;6.20;;;5.20;;
10403;SDS011;5248;47.374;8.486;2023-04-06T11:32:24;6.20;;;5.40;;
10403;SDS011;5248;47.374;8.486;2023-04-06T11:34:52;4.82;;;4.43;;
10403;SDS011;5248;47.374;8.486;2023-04-06T11:37:20;6.03;;;5.03;;
10403;SDS011;5248;47.374;8.486;2023-04-06T11:39:47;5.97;;;5.38;;
10403;SDS011;5248;47.374;8.486;2023-04-06T11:42:22;6.35;;;5.72;;
10403;SDS011;5248;47.374;8.486;2023-04-06T11:44:53;6.30;;;5.05;;
10403;SDS011;5248;47.374;8.486;2023-04-06T11:47:20;6.85;;;6.15;;
10403;SDS011;5248;47.374;8.486;2023-04-06T11:49:53;6.60;;;5.38;;
10403;SDS011;5248;47.374;8.486;2023-04-06T11:52:22;5.38;;;4.93;;
10403;SDS011;5248;47.374;8.486;2023-04-06T11:54:50;7.25;;;5.70;;
10403;SDS011;5248;47.374;8.486;2023-04-06T11:57:18;5.30;;;4.78;;
10403;SDS011;5248;47.374;8.486;2023-04-06T11:59:45;5.20;;;4.70;;
10403;SDS011;5248;47.374;8.486;2023-04-06T12:02:12;5.43;;;4.82;;
10403;SDS011;5248;47.374;8.486;2023-04-06T12:04:39;5.43;;;4.93;;
10403;SDS011;5248;47.374;8.486;2023-04-06T12:07:05;5.40;;;4.88;;
10403;SDS011;5248;47.374;8.486;2023-04-06T12:09:33;5.35;;;4.82;;
10403;SDS011;5248;47.374;8.486;2023-04-06T12:12:03;5.10;;;4.65;;
10403;SDS011;5248;47.374;8.486;2023-04-06T12:14:29;4.90;;;4.50;;
10403;SDS011;5248;47.374;8.486;2023-04-06T12:16:56;5.35;;;4.90;;
10403;SDS011;5248;47.374;8.486;2023-04-06T12:19:23;5.03;;;4.50;;
10403;SDS011;5248;47.374;8.486;2023-04-06T12:21:50;4.88;;;4.47;;
10403;SDS011;5248;47.374;8.486;2023-04-06T12:24:18;4.72;;;4.32;;
10403;SDS011;5248;47.374;8.486;2023-04-06T12:26:45;3.83;;;3.53;;
10403;SDS011;5248;47.374;8.486;2023-04-06T12:29:12;5.13;;;4.32;;
10403;SDS011;5248;47.374;8.486;2023-04-06T12:31:39;8.93;;;5.28;;
10403;SDS011;5248;47.374;8.486;2023-04-06T12:34:07;5.03;;;4.50;;
10403;SDS011;5248;47.374;8.486;2023-04-06T12:36:34;5.07;;;4.57;;
10403;SDS011;5248;47.374;8.486;2023-04-06T12:39:02;4.85;;;4.35;;
10403;SDS011;5248;47.374;8.486;2023-04-06T12:41:29;4.75;;;4.35;;
10403;SDS011;5248;47.374;8.486;2023-04-06T12:43:57;4.47;;;4.07;;
10403;SDS011;5248;47.374;8.486;2023-04-06T12:46:25;4.78;;;4.38;;
10403;SDS011;5248;47.374;8.486;2023-04-06T12:48:52;4.82;;;4.32;;
10403;SDS011;5248;47.374;8.486;2023-04-06T12:51:20;4.57;;;4.05;;
10403;SDS011;5248;47.374;8.486;2023-04-06T12:53:47;5.28;;;4.47;;
10403;SDS011;5248;47.374;8.486;2023-04-06T12:56:14;4.63;;;4.22;;
10403;SDS011;5248;47.374;8.486;2023-04-06T12:58:42;5.28;;;4.78;;
10403;SDS011;5248;47.374;8.486;2023-04-06T13:01:10;5.22;;;4.72;;
10403;SDS011;5248;47.374;8.486;2023-04-06T13:03:37;4.93;;;4.43;;
10403;SDS011;5248;47.374;8.486;2023-04-06T13:06:04;7.28;;;4.68;;
10403;SDS011;5248;47.374;8.486;2023-04-06T13:08:31;4.72;;;4.25;;
10403;SDS011;5248;47.374;8.486;2023-04-06T13:10:59;4.82;;;4.40;;
10403;SDS011;5248;47.374;8.486;2023-04-06T13:13:26;4.82;;;4.43;;
10403;SDS011;5248;47.374;8.486;2023-04-06T13:15:54;6.38;;;4.28;;
10403;SDS011;5248;47.374;8.486;2023-04-06T13:18:24;4.55;;;4.15;;
10403;SDS011;5248;47.374;8.486;2023-04-06T13:20:53;4.18;;;3.80;;
10403;SDS011;5248;47.374;8.486;2023-04-06T13:23:21;4.15;;;3.85;;
10403;SDS011;5248;47.374;8.486;2023-04-06T13:25:47;4.60;;;4.03;;
10403;SDS011;5248;47.374;8.486;2023-04-06T13:28:14;4.07;;;3.67;;
10403;SDS011;5248;47.374;8.486;2023-04-06T13:30:41;4.40;;;3.83;;
10403;SDS011;5248;47.374;8.486;2023-04-06T13:33:10;4.00;;;3.70;;
10403;SDS011;5248;47.374;8.486;2023-04-06T13:35:38;4.13;;;3.80;;
10403;SDS011;5248;47.374;8.486;2023-04-06T13:38:04;4.22;;;3.78;;
10403;SDS011;5248;47.374;8.486;2023-04-06T13:40:31;4.32;;;3.80;;
10403;SDS011;5248;47.374;8.486;2023-04-06T13:42:57;6.10;;;4.55;;
10403;SDS011;5248;47.374;8.486;2023-04-06T13:45:26;4.72;;;4.30;;
10403;SDS011;5248;47.374;8.486;2023-04-06T13:47:53;4.57;;;4.18;;
10403;SDS011;5248;47.374;8.486;2023-04-06T13:50:20;4.47;;;4.07;;
10403;SDS011;5248;47.374;8.486;2023-04-06T13:52:48;4.30;;;3.90;;
10403;SDS011;5248;47.374;8.486;2023-04-06T13:55:14;5.55;;;4.22;;
10403;SDS011;5248;47.374;8.486;2023-04-06T13:57:41;4.50;;;4.20;;
10403;SDS011;5248;47.374;8.486;2023-04-06T14:00:08;4.35;;;3.95;;
10403;SDS011;5248;47.374;8.486;2023-04-06T14:02:36;5.28;;;4.15;;
10403;SDS011;5248;47.374;8.486;2023-04-06T14:05:03;4.43;;;3.92;;
10403;SDS011;5248;47.374;8.486;2023-04-06T14:07:30;4.57;;;4.18;;
10403;SDS011;5248;47.374;8.486;2023-04-06T14:09:58;5.07;;;4.60;;
10403;SDS011;5248;47.374;8.486;2023-04-06T14:12:26;4.72;;;4.32;;
10403;SDS011;5248;47.374;8.486;2023-04-06T14:14:54;5.85;;;4.60;;
10403;SDS011;5248;47.374;8.486;2023-04-06T14:17:21;4.93;;;4.10;;
10403;SDS011;5248;47.374;8.486;2023-04-06T14:19:47;4.55;;;4.15;;
10403;SDS011;5248;47.374;8.486;2023-04-06T14:22:14;4.63;;;4.22;;
10403;SDS011;5248;47.374;8.486;2023-04-06T14:24:41;4.15;;;3.85;;
10403;SDS011;5248;47.374;8.486;2023-04-06T14:27:10;4.67;;;4.27;;
10403;SDS011;5248;47.374;8.486;2023-04-06T14:29:37;4.80;;;4.32;;
10403;SDS011;5248;47.374;8.486;2023-04-06T14:32:04;4.97;;;4.47;;
10403;SDS011;5248;47.374;8.486;2023-04-06T14:34:30;4.73;;;4.23;;
10403;SDS011;5248;47.374;8.486;2023-04-06T14:36:57;5.85;;;4.15;;
10403;SDS011;5248;47.374;8.486;2023-04-06T14:39:23;4.80;;;4.35;;
10403;SDS011;5248;47.374;8.486;2023-04-06T14:41:50;4.85;;;4.45;;
10403;SDS011;5248;47.374;8.486;2023-04-06T14:44:18;4.67;;;4.10;;
10403;SDS011;5248;47.374;8.486;2023-04-06T14:46:45;4.60;;;4.20;;
10403;SDS011;5248;47.374;8.486;2023-04-06T14:49:11;5.00;;;4.50;;
10403;SDS011;5248;47.374;8.486;2023-04-06T14:51:39;5.27;;;4.77;;
10403;SDS011;5248;47.374;8.486;2023-04-06T14:54:05;5.30;;;4.50;;
10403;SDS011;5248;47.374;8.486;2023-04-06T14:56:31;7.33;;;4.60;;
10403;SDS011;5248;47.374;8.486;2023-04-06T14:58:58;5.32;;;4.70;;
10403;SDS011;5248;47.374;8.486;2023-04-06T15:01:27;5.37;;;4.87;;
10403;SDS011;5248;47.374;8.486;2023-04-06T15:03:54;4.47;;;4.07;;
10403;SDS011;5248;47.374;8.486;2023-04-06T15:06:24;4.97;;;4.10;;